createdAt,value
2018-08-25T00:00:08.252Z,1004.25
2018-08-25T00:01:08.236Z,1004.26
2018-08-25T00:02:08.229Z,1004.24
2018-08-25T00:03:08.205Z,1004.21
2018-08-25T00:04:08.188Z,1004.19
2018-08-25T00:05:08.173Z,1004.19
2018-08-25T00:06:08.156Z,1004.19
2018-08-25T00:07:08.143Z,1004.12
2018-08-25T00:08:08.122Z,1004.11
2018-08-25T00:09:08.105Z,1004.14
2018-08-25T00:10:08.093Z,1004.12
2018-08-25T00:11:08.073Z,1004.14
2018-08-25T00:12:08.063Z,1004.09
2018-08-25T00:13:08.044Z,1004.12
2018-08-25T00:14:08.026Z,1004.09
2018-08-25T00:15:08.009Z,1004.09
2018-08-25T00:16:07.993Z,1004.05
2018-08-25T00:17:07.973Z,1004.05
2018-08-25T00:18:07.959Z,1004.07
2018-08-25T00:19:07.942Z,1004.02
2018-08-25T00:20:07.929Z,1004.00
2018-08-25T00:21:07.911Z,1004.04
2018-08-25T00:22:07.893Z,1004.04
2018-08-25T00:23:07.887Z,1004.05
2018-08-25T00:24:07.869Z,1004.00
2018-08-25T00:25:07.843Z,1003.99
2018-08-25T00:26:07.836Z,1003.94
2018-08-25T00:27:07.815Z,1003.95
2018-08-25T00:28:07.795Z,1003.90
2018-08-25T00:29:07.778Z,1003.93
2018-08-25T00:30:07.761Z,1003.90
2018-08-25T00:31:07.747Z,1003.86
2018-08-25T00:32:07.730Z,1003.90
2018-08-25T00:33:07.714Z,1003.91
2018-08-25T00:34:07.698Z,1003.92
2018-08-25T00:35:07.682Z,1003.88
2018-08-25T00:36:07.666Z,1003.89
2018-08-25T00:37:07.649Z,1003.86
2018-08-25T00:38:07.632Z,1003.83
2018-08-25T00:39:07.618Z,1003.81
2018-08-25T00:40:07.600Z,1003.78
2018-08-25T00:41:07.585Z,1003.75
2018-08-25T00:42:07.572Z,1003.73
2018-08-25T00:43:07.561Z,1003.75
2018-08-25T00:44:07.537Z,1003.72
2018-08-25T00:45:07.529Z,1003.74
2018-08-25T00:46:07.502Z,1003.73
2018-08-25T00:47:07.486Z,1003.70
2018-08-25T00:48:07.470Z,1003.70
2018-08-25T00:49:07.454Z,1003.70
2018-08-25T00:50:07.438Z,1003.70
2018-08-25T00:51:07.422Z,1003.67
2018-08-25T00:52:07.406Z,1003.66
2018-08-25T00:53:07.391Z,1003.63
2018-08-25T00:54:07.371Z,1003.64
2018-08-25T00:55:07.353Z,1003.60
2018-08-25T00:56:07.341Z,1003.56
2018-08-25T00:57:07.323Z,1003.58
2018-08-25T00:58:07.321Z,1003.53
2018-08-25T00:59:07.289Z,1003.57
2018-08-25T01:00:07.275Z,1003.50
2018-08-25T01:01:07.259Z,1003.54
2018-08-25T01:02:07.242Z,1003.51
2018-08-25T01:03:07.224Z,1003.49
2018-08-25T01:04:07.209Z,1003.52
2018-08-25T01:05:07.192Z,1003.52
2018-08-25T01:06:07.176Z,1003.52
2018-08-25T01:07:07.161Z,1003.56
2018-08-25T01:08:07.144Z,1003.51
2018-08-25T01:09:07.129Z,1003.52
2018-08-25T01:10:07.110Z,1003.48
2018-08-25T01:11:07.092Z,1003.51
2018-08-25T01:12:07.078Z,1003.48
2018-08-25T01:13:07.068Z,1003.49
2018-08-25T01:14:07.043Z,1003.51
2018-08-25T01:15:07.029Z,1003.49
2018-08-25T01:16:07.013Z,1003.48
2018-08-25T01:17:06.997Z,1003.49
2018-08-25T01:18:06.978Z,1003.43
2018-08-25T01:19:06.963Z,1003.47
2018-08-25T01:20:06.947Z,1003.48
2018-08-25T01:21:06.929Z,1003.41
2018-08-25T01:22:06.915Z,1003.42
2018-08-25T01:23:06.901Z,1003.38
2018-08-25T01:24:06.881Z,1003.38
2018-08-25T01:25:07.013Z,1003.37
2018-08-25T01:26:06.848Z,1003.37
2018-08-25T01:27:06.829Z,1003.33
2018-08-25T01:28:06.814Z,1003.34
2018-08-25T01:29:06.797Z,1003.38
2018-08-25T01:30:06.781Z,1003.38
2018-08-25T01:31:06.772Z,1003.35
2018-08-25T01:32:06.754Z,1003.36
2018-08-25T01:33:06.729Z,1003.31
2018-08-25T01:34:06.714Z,1003.30
2018-08-25T01:35:06.696Z,1003.32
2018-08-25T01:36:06.681Z,1003.35
2018-08-25T01:37:06.664Z,1003.30
2018-08-25T01:38:06.648Z,1003.34
2018-08-25T01:39:06.634Z,1003.35
2018-08-25T01:40:06.614Z,1003.31
2018-08-25T01:41:06.609Z,1003.29
2018-08-25T01:42:06.592Z,1003.25
2018-08-25T01:43:06.565Z,1003.27
2018-08-25T01:44:06.549Z,1003.28
2018-08-25T01:45:06.532Z,1003.28
2018-08-25T01:46:06.514Z,1003.25
2018-08-25T01:47:06.498Z,1003.28
2018-08-25T01:48:06.481Z,1003.28
2018-08-25T01:49:06.465Z,1003.28
2018-08-25T01:50:06.447Z,1003.22
2018-08-25T01:51:06.434Z,1003.18
2018-08-25T01:52:06.415Z,1003.18
2018-08-25T01:53:06.400Z,1003.18
2018-08-25T01:54:06.381Z,1003.17
2018-08-25T01:55:06.364Z,1003.12
2018-08-25T01:56:06.348Z,1003.12
2018-08-25T01:57:06.331Z,1003.13
2018-08-25T01:58:06.324Z,1003.13
2018-08-25T01:59:06.297Z,1003.15
2018-08-25T02:00:06.291Z,1003.14
2018-08-25T02:01:06.268Z,1003.12
2018-08-25T02:02:06.267Z,1003.08
2018-08-25T02:03:06.232Z,1003.06
2018-08-25T02:04:06.214Z,1003.08
2018-08-25T02:05:06.196Z,1003.07
2018-08-25T02:06:06.179Z,1003.05
2018-08-25T02:07:06.165Z,1003.03
2018-08-25T02:08:06.149Z,1002.94
2018-08-25T02:09:06.136Z,1002.91
2018-08-25T02:10:06.114Z,1002.86
2018-08-25T02:11:06.096Z,1002.88
2018-08-25T02:12:06.084Z,1002.86
2018-08-25T02:13:06.074Z,1002.88
2018-08-25T02:14:06.047Z,1002.85
2018-08-25T02:15:06.028Z,1002.86
2018-08-25T02:16:06.015Z,1002.81
2018-08-25T02:17:05.998Z,1002.80
2018-08-25T02:18:05.980Z,1002.77
2018-08-25T02:19:05.964Z,1002.74
2018-08-25T02:20:05.953Z,1002.70
2018-08-25T02:21:05.937Z,1002.70
2018-08-25T02:22:05.916Z,1002.68
2018-08-25T02:23:05.895Z,1002.71
2018-08-25T02:24:05.878Z,1002.71
2018-08-25T02:25:05.863Z,1002.75
2018-08-25T02:26:05.845Z,1002.70
2018-08-25T02:27:05.835Z,1002.69
2018-08-25T02:28:05.832Z,1002.63
2018-08-25T02:29:05.795Z,1002.69
2018-08-25T02:30:05.834Z,1002.64
2018-08-25T02:31:05.760Z,1002.69
2018-08-25T02:32:05.744Z,1002.64
2018-08-25T02:33:05.739Z,1002.65
2018-08-25T02:34:05.709Z,1002.61
2018-08-25T02:35:05.694Z,1002.64
2018-08-25T02:36:05.685Z,1002.56
2018-08-25T02:37:05.660Z,1002.57
2018-08-25T02:38:05.642Z,1002.54
2018-08-25T02:39:05.625Z,1002.51
2018-08-25T02:40:05.608Z,1002.52
2018-08-25T02:41:05.590Z,1002.45
2018-08-25T02:42:05.576Z,1002.47
2018-08-25T02:43:05.557Z,1002.44
2018-08-25T02:44:05.543Z,1002.43
2018-08-25T02:45:05.523Z,1002.43
2018-08-25T02:46:05.508Z,1002.42
2018-08-25T02:47:05.489Z,1002.39
2018-08-25T02:48:05.473Z,1002.37
2018-08-25T02:49:05.465Z,1002.40
2018-08-25T02:50:05.440Z,1002.39
2018-08-25T02:51:05.422Z,1002.38
2018-08-25T02:52:05.505Z,1002.33
2018-08-25T02:53:05.388Z,1002.34
2018-08-25T02:54:05.375Z,1002.33
2018-08-25T02:55:05.356Z,1002.34
2018-08-25T02:56:05.337Z,1002.36
2018-08-25T02:57:05.321Z,1002.38
2018-08-25T02:58:05.303Z,1002.33
2018-08-25T02:59:05.287Z,1002.30
2018-08-25T03:00:05.271Z,1002.33
2018-08-25T03:01:05.254Z,1002.30
2018-08-25T03:02:05.235Z,1002.31
2018-08-25T03:03:05.223Z,1002.25
2018-08-25T03:04:05.203Z,1002.27
2018-08-25T03:05:05.187Z,1002.25
2018-08-25T03:06:05.173Z,1002.25
2018-08-25T03:07:05.154Z,1002.26
2018-08-25T03:08:05.136Z,1002.25
2018-08-25T03:09:05.119Z,1002.24
2018-08-25T03:10:05.103Z,1002.22
2018-08-25T03:11:05.090Z,1002.22
2018-08-25T03:12:05.078Z,1002.24
2018-08-25T03:13:05.055Z,1002.28
2018-08-25T03:14:05.038Z,1002.33
2018-08-25T03:15:05.019Z,1002.29
2018-08-25T03:16:05.009Z,1002.23
2018-08-25T03:17:04.987Z,1002.17
2018-08-25T03:18:04.969Z,1002.15
2018-08-25T03:19:04.952Z,1002.15
2018-08-25T03:20:04.936Z,1002.11
2018-08-25T03:21:04.924Z,1002.10
2018-08-25T03:22:04.902Z,1002.06
2018-08-25T03:23:04.886Z,1002.04
2018-08-25T03:24:04.870Z,1002.01
2018-08-25T03:25:04.854Z,1002.01
2018-08-25T03:26:04.837Z,1001.99
2018-08-25T03:27:04.835Z,1001.99
2018-08-25T03:28:04.805Z,1001.98
2018-08-25T03:29:04.785Z,1002.00
2018-08-25T03:30:04.770Z,1001.98
2018-08-25T03:31:04.755Z,1002.02
2018-08-25T03:32:04.742Z,1002.03
2018-08-25T03:33:04.721Z,1002.08
2018-08-25T03:34:04.707Z,1002.21
2018-08-25T03:35:04.690Z,1002.28
2018-08-25T03:36:04.673Z,1002.35
2018-08-25T03:37:04.656Z,1002.41
2018-08-25T03:38:04.696Z,1002.46
2018-08-25T03:39:04.623Z,1002.45
2018-08-25T03:40:04.607Z,1002.50
2018-08-25T03:41:04.591Z,1002.45
2018-08-25T03:42:04.573Z,1002.47
2018-08-25T03:43:04.557Z,1002.46
2018-08-25T03:44:04.542Z,1002.44
2018-08-25T03:45:04.524Z,1002.46
2018-08-25T03:46:04.514Z,1002.45
2018-08-25T03:47:04.493Z,1002.43
2018-08-25T03:48:04.474Z,1002.44
2018-08-25T03:49:04.458Z,1002.42
2018-08-25T03:50:04.443Z,1002.33
2018-08-25T03:51:04.425Z,1002.27
2018-08-25T03:52:04.409Z,1002.28
2018-08-25T03:53:04.392Z,1002.26
2018-08-25T03:54:04.376Z,1002.17
2018-08-25T03:55:04.369Z,1002.19
2018-08-25T03:56:04.344Z,1002.26
2018-08-25T03:57:04.324Z,1002.22
2018-08-25T03:58:04.309Z,1002.17
2018-08-25T03:59:04.293Z,1002.12
2018-08-25T04:00:04.287Z,1002.10
2018-08-25T04:01:04.260Z,1002.03
2018-08-25T04:02:04.306Z,1002.00
2018-08-25T04:03:04.228Z,1002.01
2018-08-25T04:04:04.220Z,1002.02
2018-08-25T04:05:04.193Z,1002.03
2018-08-25T04:06:04.179Z,1002.02
2018-08-25T04:07:04.166Z,1001.99
2018-08-25T04:08:04.144Z,1002.04
2018-08-25T04:09:04.128Z,1002.00
2018-08-25T04:10:04.110Z,1002.02
2018-08-25T04:11:04.094Z,1002.00
2018-08-25T04:12:04.077Z,1002.00
2018-08-25T04:13:04.060Z,1002.01
2018-08-25T04:14:04.043Z,1001.95
2018-08-25T04:15:04.029Z,1001.93
2018-08-25T04:16:04.013Z,1001.94
2018-08-25T04:17:03.995Z,1001.92
2018-08-25T04:18:03.978Z,1001.90
2018-08-25T04:19:03.962Z,1001.90
2018-08-25T04:20:03.952Z,1001.94
2018-08-25T04:21:03.931Z,1001.93
2018-08-25T04:22:03.951Z,1001.97
2018-08-25T04:23:03.897Z,1001.96
2018-08-25T04:24:03.879Z,1001.94
2018-08-25T04:25:03.860Z,1001.92
2018-08-25T04:26:03.846Z,1001.91
2018-08-25T04:27:03.828Z,1001.87
2018-08-25T04:28:03.820Z,1001.89
2018-08-25T04:29:03.793Z,1001.84
2018-08-25T04:30:03.779Z,1001.80
2018-08-25T04:31:03.761Z,1001.84
2018-08-25T04:32:03.745Z,1001.84
2018-08-25T04:33:03.728Z,1001.83
2018-08-25T04:34:03.713Z,1001.89
2018-08-25T04:35:03.695Z,1001.87
2018-08-25T04:36:03.678Z,1001.91
2018-08-25T04:37:03.661Z,1001.89
2018-08-25T04:38:03.643Z,1001.89
2018-08-25T04:39:03.627Z,1001.87
2018-08-25T04:40:03.626Z,1001.91
2018-08-25T04:41:03.666Z,1001.90
2018-08-25T04:42:03.578Z,1001.92
2018-08-25T04:43:03.561Z,1001.85
2018-08-25T04:44:03.548Z,1001.81
2018-08-25T04:45:03.527Z,1001.84
2018-08-25T04:46:03.508Z,1001.79
2018-08-25T04:47:03.492Z,1001.82
2018-08-25T04:48:03.529Z,1001.81
2018-08-25T04:49:03.458Z,1001.79
2018-08-25T04:50:03.441Z,1001.77
2018-08-25T04:51:03.426Z,1001.82
2018-08-25T04:52:03.408Z,1001.83
2018-08-25T04:53:03.400Z,1001.83
2018-08-25T04:54:03.372Z,1001.79
2018-08-25T04:55:03.356Z,1001.77
2018-08-25T04:56:03.340Z,1001.81
2018-08-25T04:57:03.321Z,1001.84
2018-08-25T04:58:03.306Z,1001.88
2018-08-25T04:59:03.289Z,1001.87
2018-08-25T05:00:03.273Z,1001.85
2018-08-25T05:01:03.255Z,1001.82
2018-08-25T05:02:03.268Z,1001.82
2018-08-25T05:03:03.220Z,1001.80
2018-08-25T05:04:03.203Z,1001.82
2018-08-25T05:05:03.187Z,1001.79
2018-08-25T05:06:03.169Z,1001.81
2018-08-25T05:07:03.156Z,1001.85
2018-08-25T05:08:03.136Z,1001.85
2018-08-25T05:09:03.118Z,1001.90
2018-08-25T05:10:03.100Z,1001.83
2018-08-25T05:11:03.084Z,1001.91
2018-08-25T05:12:03.066Z,1001.91
2018-08-25T05:13:03.048Z,1001.90
2018-08-25T05:14:03.032Z,1001.85
2018-08-25T05:15:03.016Z,1001.82
2018-08-25T05:16:03.000Z,1001.81
2018-08-25T05:17:02.986Z,1001.79
2018-08-25T05:18:02.963Z,1001.80
2018-08-25T05:19:02.949Z,1001.78
2018-08-25T05:20:02.929Z,1001.79
2018-08-25T05:21:02.912Z,1001.80
2018-08-25T05:22:03.030Z,1001.80
2018-08-25T05:23:02.880Z,1001.79
2018-08-25T05:24:02.860Z,1001.80
2018-08-25T05:25:02.852Z,1001.78
2018-08-25T05:26:02.829Z,1001.75
2018-08-25T05:27:02.816Z,1001.77
2018-08-25T05:28:02.793Z,1001.76
2018-08-25T05:29:02.781Z,1001.77
2018-08-25T05:30:02.758Z,1001.83
2018-08-25T05:31:02.741Z,1001.79
2018-08-25T05:32:02.725Z,1001.83
2018-08-25T05:33:02.708Z,1001.84
2018-08-25T05:34:02.689Z,1001.82
2018-08-25T05:35:02.677Z,1001.81
2018-08-25T05:36:02.660Z,1001.82
2018-08-25T05:37:02.640Z,1001.85
2018-08-25T05:38:02.621Z,1001.77
2018-08-25T05:39:02.603Z,1001.88
2018-08-25T05:40:02.588Z,1001.78
2018-08-25T05:41:02.573Z,1001.82
2018-08-25T05:42:02.560Z,1001.89
2018-08-25T05:43:02.539Z,1001.79
2018-08-25T05:44:02.526Z,1001.83
2018-08-25T05:45:02.502Z,1001.82
2018-08-25T05:46:02.494Z,1001.85
2018-08-25T05:47:02.469Z,1001.86
2018-08-25T05:48:02.463Z,1001.84
2018-08-25T05:49:02.442Z,1001.83
2018-08-25T05:50:02.419Z,1001.91
2018-08-25T05:51:02.399Z,1001.87
2018-08-25T05:52:02.403Z,1001.88
2018-08-25T05:53:02.384Z,1001.90
2018-08-25T05:54:02.349Z,1001.94
2018-08-25T05:55:02.335Z,1001.87
2018-08-25T05:56:02.323Z,1001.88
2018-08-25T05:57:02.297Z,1001.88
2018-08-25T05:58:02.281Z,1001.88
2018-08-25T05:59:02.271Z,1001.89
2018-08-25T06:00:02.248Z,1001.88
2018-08-25T06:01:02.237Z,1001.89
2018-08-25T06:02:02.211Z,1001.91
2018-08-25T06:03:02.195Z,1001.93
2018-08-25T06:04:02.178Z,1001.93
2018-08-25T06:05:02.160Z,1001.91
2018-08-25T06:06:02.144Z,1001.89
2018-08-25T06:07:02.128Z,1001.94
2018-08-25T06:08:02.115Z,1001.89
2018-08-25T06:09:02.095Z,1001.92
2018-08-25T06:10:02.092Z,1001.96
2018-08-25T06:11:02.060Z,1001.98
2018-08-25T06:12:02.044Z,1002.00
2018-08-25T06:13:02.033Z,1001.96
2018-08-25T06:14:02.015Z,1002.03
2018-08-25T06:15:01.991Z,1001.95
2018-08-25T06:16:01.975Z,1001.94
2018-08-25T06:17:01.957Z,1001.94
2018-08-25T06:18:01.991Z,1002.07
2018-08-25T06:19:01.973Z,1002.07
2018-08-25T06:20:01.905Z,1002.07
2018-08-25T06:21:01.898Z,1002.03
2018-08-25T06:22:01.875Z,1002.09
2018-08-25T06:23:01.856Z,1002.06
2018-08-25T06:24:01.842Z,1002.09
2018-08-25T06:25:01.823Z,1002.12
2018-08-25T06:26:01.805Z,1002.08
2018-08-25T06:27:01.787Z,1002.06
2018-08-25T06:28:01.787Z,1002.11
2018-08-25T06:29:01.763Z,1002.09
2018-08-25T06:30:01.769Z,1002.11
2018-08-25T06:31:01.721Z,1002.12
2018-08-25T06:32:01.707Z,1002.17
2018-08-25T06:33:01.687Z,1002.09
2018-08-25T06:34:01.671Z,1002.10
2018-08-25T06:35:01.654Z,1002.18
2018-08-25T06:36:01.646Z,1002.22
2018-08-25T06:37:01.628Z,1002.20
2018-08-25T06:38:01.623Z,1002.24
2018-08-25T06:39:01.589Z,1002.30
2018-08-25T06:40:01.626Z,1002.30
2018-08-25T06:41:01.558Z,1002.28
2018-08-25T06:42:01.543Z,1002.28
2018-08-25T06:43:01.522Z,1002.29
2018-08-25T06:44:01.521Z,1002.33
2018-08-25T06:45:01.493Z,1002.30
2018-08-25T06:46:01.473Z,1002.32
2018-08-25T06:47:01.460Z,1002.32
2018-08-25T06:48:01.441Z,1002.32
2018-08-25T06:49:01.425Z,1002.31
2018-08-25T06:50:01.409Z,1002.30
2018-08-25T06:51:01.394Z,1002.33
2018-08-25T06:52:01.377Z,1002.39
2018-08-25T06:53:01.367Z,1002.33
2018-08-25T06:54:01.358Z,1002.31
2018-08-25T06:55:01.329Z,1002.31
2018-08-25T06:56:01.315Z,1002.35
2018-08-25T06:57:01.296Z,1002.36
2018-08-25T06:58:01.278Z,1002.35
2018-08-25T06:59:01.272Z,1002.42
2018-08-25T07:00:01.249Z,1002.46
2018-08-25T07:01:01.233Z,1002.41
2018-08-25T07:02:01.215Z,1002.38
2018-08-25T07:03:01.208Z,1002.41
2018-08-25T07:04:01.187Z,1002.42
2018-08-25T07:05:01.171Z,1002.39
2018-08-25T07:06:01.217Z,1002.41
2018-08-25T07:07:01.134Z,1002.48
2018-08-25T07:08:01.127Z,1002.47
2018-08-25T07:09:01.102Z,1002.44
2018-08-25T07:10:01.133Z,1002.43
2018-08-25T07:11:01.070Z,1002.48
2018-08-25T07:12:01.054Z,1002.51
2018-08-25T07:13:01.126Z,1002.48
2018-08-25T07:14:01.023Z,1002.53
2018-08-25T07:15:01.005Z,1002.53
2018-08-25T07:16:00.997Z,1002.59
2018-08-25T07:17:00.973Z,1002.66
2018-08-25T07:18:00.958Z,1002.74
2018-08-25T07:19:01.010Z,1002.66
2018-08-25T07:20:00.925Z,1002.62
2018-08-25T07:21:00.922Z,1002.67
2018-08-25T07:22:00.891Z,1002.67
2018-08-25T07:23:00.877Z,1002.68
2018-08-25T07:24:00.861Z,1002.72
2018-08-25T07:25:00.849Z,1002.64
2018-08-25T07:26:00.850Z,1002.60
2018-08-25T07:27:00.814Z,1002.61
2018-08-25T07:28:00.800Z,1002.60
2018-08-25T07:29:00.781Z,1002.67
2018-08-25T07:30:00.766Z,1002.66
2018-08-25T07:31:00.751Z,1002.74
2018-08-25T07:32:00.779Z,1002.76
2018-08-25T07:33:00.723Z,1002.76
2018-08-25T07:34:00.705Z,1002.73
2018-08-25T07:35:00.697Z,1002.73
2018-08-25T07:36:00.676Z,1002.75
2018-08-25T07:37:00.665Z,1002.75
2018-08-25T07:38:00.643Z,1002.78
2018-08-25T07:39:00.629Z,1002.75
2018-08-25T07:40:00.612Z,1002.73
2018-08-25T07:41:00.606Z,1002.75
2018-08-25T07:42:00.582Z,1002.77
2018-08-25T07:43:00.567Z,1002.78
2018-08-25T07:44:00.553Z,1002.78
2018-08-25T07:45:00.537Z,1002.86
2018-08-25T07:46:00.521Z,1002.85
2018-08-25T07:47:00.606Z,1002.90
2018-08-25T07:48:00.491Z,1002.87
2018-08-25T07:49:00.479Z,1002.92
2018-08-25T07:50:00.460Z,1002.90
2018-08-25T07:51:00.497Z,1002.90
2018-08-25T07:52:00.431Z,1002.84
2018-08-25T07:53:00.424Z,1002.83
2018-08-25T07:54:00.401Z,1002.83
2018-08-25T07:55:00.388Z,1002.84
2018-08-25T07:56:00.372Z,1002.82
2018-08-25T07:57:00.355Z,1002.81
2018-08-25T07:58:00.344Z,1002.80
2018-08-25T07:59:00.350Z,1002.80
2018-08-25T08:00:00.314Z,1002.83
2018-08-25T08:01:00.297Z,1002.88
2018-08-25T08:02:00.281Z,1002.90
2018-08-25T08:03:00.276Z,1002.88
2018-08-25T08:04:00.253Z,1002.96
2018-08-25T08:05:00.238Z,1002.92
2018-08-25T08:06:00.222Z,1002.95
2018-08-25T08:07:00.208Z,1002.91
2018-08-25T08:08:00.200Z,1002.92
2018-08-25T08:09:00.182Z,1002.95
2018-08-25T08:10:00.178Z,1002.93
2018-08-25T08:11:00.147Z,1002.98
2018-08-25T08:12:00.256Z,1002.98
2018-08-25T08:13:00.122Z,1003.02
2018-08-25T08:14:00.110Z,1003.00
2018-08-25T08:15:00.091Z,1002.99
2018-08-25T08:16:00.075Z,1002.97
2018-08-25T08:17:00.059Z,1003.05
2018-08-25T08:18:00.035Z,1003.01
2018-08-25T08:19:00.019Z,1003.02
2018-08-25T08:20:00.003Z,1003.05
2018-08-25T08:20:59.999Z,1003.06
2018-08-25T08:21:59.982Z,1003.08
2018-08-25T08:22:59.958Z,1003.11
2018-08-25T08:23:59.951Z,1003.08
2018-08-25T08:24:59.934Z,1003.11
2018-08-25T08:25:59.908Z,1003.12
2018-08-25T08:26:59.896Z,1003.15
2018-08-25T08:27:59.876Z,1003.15
2018-08-25T08:28:59.859Z,1003.16
2018-08-25T08:29:59.861Z,1003.23
2018-08-25T08:30:59.829Z,1003.19
2018-08-25T08:31:59.817Z,1003.20
2018-08-25T08:32:59.807Z,1003.27
2018-08-25T08:33:59.780Z,1003.29
2018-08-25T08:34:59.765Z,1003.28
2018-08-25T08:35:59.749Z,1003.37
2018-08-25T08:36:59.731Z,1003.31
2018-08-25T08:37:59.732Z,1003.31
2018-08-25T08:38:59.708Z,1003.35
2018-08-25T08:39:59.688Z,1003.35
2018-08-25T08:40:59.682Z,1003.44
2018-08-25T08:41:59.658Z,1003.40
2018-08-25T08:42:59.639Z,1003.46
2018-08-25T08:43:59.631Z,1003.47
2018-08-25T08:44:59.609Z,1003.35
2018-08-25T08:45:59.601Z,1003.36
2018-08-25T08:46:59.579Z,1003.29
2018-08-25T08:47:59.571Z,1003.32
2018-08-25T08:48:59.555Z,1003.31
2018-08-25T08:49:59.618Z,1003.29
2018-08-25T08:50:59.521Z,1003.30
2018-08-25T08:51:59.521Z,1003.31
2018-08-25T08:52:59.495Z,1003.32
2018-08-25T08:53:59.477Z,1003.37
2018-08-25T08:54:59.464Z,1003.39
2018-08-25T08:55:59.445Z,1003.36
2018-08-25T08:56:59.543Z,1003.40
2018-08-25T08:57:59.415Z,1003.40
2018-08-25T08:58:59.404Z,1003.46
2018-08-25T08:59:59.489Z,1003.49
2018-08-25T09:00:59.370Z,1003.47
2018-08-25T09:01:59.355Z,1003.57
2018-08-25T09:02:59.348Z,1003.63
2018-08-25T09:03:59.324Z,1003.67
2018-08-25T09:04:59.308Z,1003.63
2018-08-25T09:05:59.294Z,1003.57
2018-08-25T09:06:59.280Z,1003.66
2018-08-25T09:07:59.264Z,1003.68
2018-08-25T09:08:59.247Z,1003.75
2018-08-25T09:09:59.249Z,1003.71
2018-08-25T09:10:59.221Z,1003.73
2018-08-25T09:11:59.205Z,1003.71
2018-08-25T09:12:59.188Z,1003.72
2018-08-25T09:13:59.190Z,1003.74
2018-08-25T09:14:59.168Z,1003.79
2018-08-25T09:15:59.143Z,1003.84
2018-08-25T09:16:59.127Z,1003.89
2018-08-25T09:17:59.120Z,1003.94
2018-08-25T09:18:59.100Z,1003.93
2018-08-25T09:19:59.082Z,1003.97
2018-08-25T09:20:59.066Z,1003.93
2018-08-25T09:21:59.053Z,1003.95
2018-08-25T09:22:59.044Z,1003.96
2018-08-25T09:23:59.022Z,1003.91
2018-08-25T09:24:59.004Z,1003.89
2018-08-25T09:25:58.997Z,1003.93
2018-08-25T09:26:58.984Z,1003.97
2018-08-25T09:27:58.969Z,1003.94
2018-08-25T09:28:58.953Z,1003.99
2018-08-25T09:29:58.934Z,1004.05
2018-08-25T09:30:58.922Z,1004.00
2018-08-25T09:31:58.900Z,1004.04
2018-08-25T09:32:58.890Z,1004.07
2018-08-25T09:33:58.881Z,1004.05
2018-08-25T09:34:58.864Z,1004.04
2018-08-25T09:35:58.958Z,1004.17
2018-08-25T09:36:58.955Z,1004.26
2018-08-25T09:37:58.816Z,1004.16
2018-08-25T09:38:58.802Z,1004.27
2018-08-25T09:39:58.795Z,1004.53
2018-08-25T09:40:58.777Z,1004.55
2018-08-25T09:41:58.759Z,1004.19
2018-08-25T09:42:58.741Z,1004.18
2018-08-25T09:43:58.730Z,1004.18
2018-08-25T09:44:58.714Z,1004.59
2018-08-25T09:45:58.706Z,1004.65
2018-08-25T09:46:58.726Z,1004.28
2018-08-25T09:47:58.678Z,1004.68
2018-08-25T09:48:58.665Z,1004.69
2018-08-25T09:49:58.656Z,1004.74
2018-08-25T09:50:58.662Z,1004.67
2018-08-25T09:51:58.635Z,1004.72
2018-08-25T09:52:58.634Z,1004.76
2018-08-25T09:53:58.615Z,1004.72
2018-08-25T09:54:58.617Z,1004.65
2018-08-25T09:55:58.595Z,1004.32
2018-08-25T09:56:58.587Z,1004.30
2018-08-25T09:57:58.577Z,1004.57
2018-08-25T09:58:58.607Z,1004.31
2018-08-25T09:59:58.559Z,1004.77
2018-08-25T10:00:58.550Z,1004.59
2018-08-25T10:01:58.542Z,1004.74
2018-08-25T10:02:58.534Z,1004.80
2018-08-25T10:03:58.532Z,1004.51
2018-08-25T10:04:58.516Z,1004.44
2018-08-25T10:05:58.511Z,1004.80
2018-08-25T10:06:58.503Z,1004.43
2018-08-25T10:07:58.518Z,1004.81
2018-08-25T10:08:58.487Z,1004.81
2018-08-25T10:09:58.490Z,1004.85
2018-08-25T10:10:58.573Z,1004.77
2018-08-25T10:11:58.475Z,1004.54
2018-08-25T10:12:58.460Z,1004.91
2018-08-25T10:13:58.462Z,1004.90
2018-08-25T10:14:58.447Z,1004.57
2018-08-25T10:15:58.447Z,1004.89
2018-08-25T10:16:58.551Z,1004.56
2018-08-25T10:17:58.430Z,1004.53
2018-08-25T10:18:58.428Z,1004.56
2018-08-25T10:19:58.422Z,1004.79
2018-08-25T10:20:58.422Z,1004.89
2018-08-25T10:21:58.408Z,1004.91
2018-08-25T10:22:58.708Z,1004.90
2018-08-25T10:23:58.396Z,1004.60
2018-08-25T10:24:58.393Z,1004.97
2018-08-25T10:25:58.399Z,1004.74
2018-08-25T10:26:58.404Z,1004.70
2018-08-25T10:27:58.387Z,1004.72
2018-08-25T10:28:58.435Z,1004.92
2018-08-25T10:29:58.369Z,1004.71
2018-08-25T10:30:58.355Z,1004.69
2018-08-25T10:31:58.358Z,1004.94
2018-08-25T10:32:58.346Z,1004.95
2018-08-25T10:33:58.345Z,1004.97
2018-08-25T10:34:58.339Z,1004.64
2018-08-25T10:35:58.329Z,1004.67
2018-08-25T10:36:58.319Z,1004.83
2018-08-25T10:37:58.314Z,1004.92
2018-08-25T10:38:58.316Z,1004.98
2018-08-25T10:39:58.303Z,1005.01
2018-08-25T10:40:58.309Z,1004.67
2018-08-25T10:41:58.350Z,1004.72
2018-08-25T10:42:58.285Z,1004.62
2018-08-25T10:43:58.283Z,1004.61
2018-08-25T10:44:58.271Z,1004.63
2018-08-25T10:45:58.277Z,1004.59
2018-08-25T10:46:58.259Z,1004.65
2018-08-25T10:47:58.292Z,1004.62
2018-08-25T10:48:58.257Z,1004.69
2018-08-25T10:49:58.246Z,1004.72
2018-08-25T10:50:58.229Z,1004.71
2018-08-25T10:51:58.227Z,1004.99
2018-08-25T10:52:58.215Z,1005.10
2018-08-25T10:53:58.226Z,1004.98
2018-08-25T10:54:58.206Z,1004.84
2018-08-25T10:55:58.198Z,1004.80
2018-08-25T10:56:58.192Z,1004.79
2018-08-25T10:57:58.174Z,1004.82
2018-08-25T10:58:58.172Z,1004.87
2018-08-25T10:59:58.176Z,1004.82
2018-08-25T11:00:58.249Z,1004.85
2018-08-25T11:01:58.144Z,1005.10
2018-08-25T11:02:58.147Z,1004.74
2018-08-25T11:03:58.138Z,1004.77
2018-08-25T11:04:58.131Z,1004.60
2018-08-25T11:05:58.114Z,1004.72
2018-08-25T11:06:58.108Z,1004.60
2018-08-25T11:07:58.097Z,1004.69
2018-08-25T11:08:58.253Z,1005.12
2018-08-25T11:09:58.085Z,1005.19
2018-08-25T11:10:58.072Z,1005.23
2018-08-25T11:11:58.062Z,1005.18
2018-08-25T11:12:58.062Z,1004.84
2018-08-25T11:13:58.058Z,1005.02
2018-08-25T11:14:58.049Z,1004.75
2018-08-25T11:15:58.040Z,1005.28
2018-08-25T11:16:58.031Z,1005.25
2018-08-25T11:17:58.015Z,1005.34
2018-08-25T11:18:58.051Z,1004.74
2018-08-25T11:19:58.003Z,1004.81
2018-08-25T11:20:57.991Z,1005.44
2018-08-25T11:21:57.986Z,1005.47
2018-08-25T11:22:57.996Z,1005.50
2018-08-25T11:23:57.995Z,1004.80
2018-08-25T11:24:57.966Z,1004.76
2018-08-25T11:25:57.966Z,1004.80
2018-08-25T11:26:57.959Z,1004.98
2018-08-25T11:27:58.001Z,1004.76
2018-08-25T11:28:57.986Z,1004.74
2018-08-25T11:29:57.936Z,1005.69
2018-08-25T11:30:57.932Z,1004.82
2018-08-25T11:31:57.932Z,1005.65
2018-08-25T11:32:57.924Z,1004.72
2018-08-25T11:33:57.899Z,1004.68
2018-08-25T11:34:57.901Z,1004.72
2018-08-25T11:35:57.893Z,1004.65
2018-08-25T11:36:57.879Z,1004.68
2018-08-25T11:37:57.872Z,1004.72
2018-08-25T11:38:57.871Z,1004.73
2018-08-25T11:39:57.870Z,1004.68
2018-08-25T11:40:57.845Z,1004.68
2018-08-25T11:41:57.845Z,1004.77
2018-08-25T11:42:57.831Z,1004.68
2018-08-25T11:43:57.850Z,1004.76
2018-08-25T11:44:57.812Z,1004.86
2018-08-25T11:45:57.804Z,1004.76
2018-08-25T11:46:57.799Z,1004.69
2018-08-25T11:47:57.785Z,1004.72
2018-08-25T11:48:57.772Z,1005.29
2018-08-25T11:49:57.770Z,1004.85
2018-08-25T11:50:57.763Z,1004.90
2018-08-25T11:51:57.805Z,1004.72
2018-08-25T11:52:57.734Z,1004.70
2018-08-25T11:53:57.770Z,1004.77
2018-08-25T11:54:57.723Z,1004.66
2018-08-25T11:55:57.709Z,1004.76
2018-08-25T11:56:57.701Z,1004.70
2018-08-25T11:57:57.687Z,1004.74
2018-08-25T11:58:57.687Z,1004.72
2018-08-25T11:59:57.677Z,1004.73
2018-08-25T12:00:57.666Z,1004.69
2018-08-25T12:01:57.648Z,1004.67
2018-08-25T12:02:57.649Z,1004.68
2018-08-25T12:03:57.635Z,1004.68
2018-08-25T12:04:57.619Z,1004.64